Time;durP1;ratioP1;P1;durP2;ratioP2;P2;SDS_P1;SDS_P2;PMS_P1;PMS_P2;Temp;Humidity;BMP_temperature;BMP_pressure;BME280_temperature;BME280_humidity;BME280_pressure;Samples;Min_cycle;Max_cycle;Signal;HPM_P1;HPM_P2
2023/05/16 00:01:29;;;;;;;5.65;4.72;;;10.20;85.00;;;;;;5035067;28;20072;-84
2023/05/16 00:03:55;;;;;;;5.78;5.03;;;10.30;84.80;;;;;;5034283;28;20052;-81
2023/05/16 00:06:21;;;;;;;6.38;4.60;;;10.20;84.80;;;;;;5033086;28;20030;-79
2023/05/16 00:08:47;;;;;;;6.15;4.88;;;10.10;85.20;;;;;;5033948;28;20028;-79
2023/05/16 00:11:13;;;;;;;5.57;5.07;;;10.10;85.60;;;;;;5034333;28;20052;-80
2023/05/16 00:13:41;;;;;;;7.28;4.85;;;10.10;85.80;;;;;;5034243;28;20021;-81
2023/05/16 00:16:06;;;;;;;5.97;4.68;;;10.20;85.80;;;;;;5033910;28;20030;-76
2023/05/16 00:18:32;;;;;;;7.68;5.70;;;10.20;86.00;;;;;;5033866;28;20022;-76
2023/05/16 00:20:58;;;;;;;5.72;4.60;;;10.20;86.10;;;;;;5032676;28;20107;-78
2023/05/16 00:23:24;;;;;;;5.82;5.22;;;10.20;86.00;;;;;;5033943;28;20030;-75
2023/05/16 00:25:49;;;;;;;5.40;4.78;;;10.20;86.00;;;;;;5033883;28;20125;-74
2023/05/16 00:28:15;;;;;;;5.93;4.82;;;10.20;86.00;;;;;;5033828;28;20033;-75
2023/05/16 00:30:41;;;;;;;5.70;5.10;;;10.20;85.80;;;;;;5033694;28;20021;-77
2023/05/16 00:33:06;;;;;;;7.65;5.07;;;10.20;86.00;;;;;;5033885;28;20342;-81
2023/05/16 00:35:32;;;;;;;7.15;5.00;;;10.20;86.00;;;;;;5033647;28;20561;-83
2023/05/16 00:37:57;;;;;;;7.63;5.05;;;10.20;86.10;;;;;;5032583;28;20021;-82
2023/05/16 00:40:23;;;;;;;7.75;5.00;;;10.20;86.00;;;;;;5033607;28;20026;-76
2023/05/16 00:42:48;;;;;;;6.68;5.20;;;10.30;86.00;;;;;;5033521;28;20355;-80
2023/05/16 00:45:14;;;;;;;6.70;4.50;;;10.30;86.00;;;;;;5033648;28;20029;-77
2023/05/16 00:47:39;;;;;;;5.60;4.93;;;10.30;85.90;;;;;;5033384;28;20167;-76
2023/05/16 00:50:06;;;;;;;6.45;5.20;;;10.40;85.70;;;;;;5033699;28;20036;-74
2023/05/16 00:52:32;;;;;;;5.70;5.07;;;10.30;86.10;;;;;;5032461;28;20108;-76
2023/05/16 00:54:58;;;;;;;5.93;5.03;;;10.30;86.20;;;;;;5033636;28;20075;-84
2023/05/16 00:57:24;;;;;;;9.52;5.38;;;10.30;86.20;;;;;;5032464;28;20021;-76
2023/05/16 00:59:50;;;;;;;5.82;5.13;;;10.40;86.20;;;;;;5033879;28;20040;-81
2023/05/16 01:02:15;;;;;;;8.48;5.13;;;10.40;86.20;;;;;;5037113;28;20036;-73
2023/05/16 01:04:42;;;;;;;6.38;5.05;;;10.40;86.00;;;;;;5040574;28;20112;-79
2023/05/16 01:07:08;;;;;;;4.63;4.20;;;10.50;85.90;;;;;;5041581;28;20496;-78
2023/05/16 01:09:34;;;;;;;8.27;5.53;;;10.50;85.70;;;;;;5043934;28;20026;-74
2023/05/16 01:12:20;;;;;;;6.22;5.28;;;10.50;85.30;;;;;;5044513;28;20026;-74
2023/05/16 01:15:07;;;;;;;;;;;10.50;85.40;;;;;;5047585;28;20068;-74
2023/05/16 01:17:56;;;;;;;6.25;5.18;;;10.40;85.50;;;;;;5048150;28;20277;-76
2023/05/16 01:20:31;;;;;;;5.07;4.63;;;10.50;85.70;;;;;;5047458;28;20026;-81
2023/05/16 01:23:05;;;;;;;6.88;4.95;;;10.50;85.80;;;;;;5046859;28;20036;-76
2023/05/16 01:25:48;;;;;;;7.90;4.85;;;10.50;85.70;;;;;;5046786;28;20029;-76
2023/05/16 01:28:16;;;;;;;5.88;4.45;;;10.60;85.70;;;;;;5046407;28;20048;-75
2023/05/16 01:30:42;;;;;;;4.97;4.45;;;10.60;85.70;;;;;;5038464;28;20031;-76
2023/05/16 01:33:08;;;;;;;7.10;5.00;;;10.60;85.80;;;;;;5037308;28;20116;-83
2023/05/16 01:35:46;;;;;;;5.72;4.70;;;10.70;85.70;;;;;;5038500;28;20026;-83
2023/05/16 01:38:16;;;;;;;5.15;4.65;;;10.70;85.40;;;;;;5038169;28;20053;-81
2023/05/16 01:40:59;;;;;;;6.63;4.70;;;10.70;85.50;;;;;;5040050;28;20497;-76
2023/05/16 01:43:41;;;;;;;5.97;5.07;;;10.70;85.60;;;;;;5041371;28;20025;-75
2023/05/16 01:46:15;;;;;;;6.25;4.53;;;10.80;85.40;;;;;;5038327;28;20033;-78
2023/05/16 01:48:53;;;;;;;5.03;4.50;;;10.80;85.30;;;;;;5038848;28;20490;-76
2023/05/16 01:51:26;;;;;;;5.32;4.80;;;10.80;85.40;;;;;;5036294;28;20029;-73
2023/05/16 01:53:57;;;;;;;6.45;5.10;;;10.80;85.40;;;;;;5037252;28;20022;-73
2023/05/16 01:56:25;;;;;;;6.18;4.82;;;10.90;85.70;;;;;;5037884;28;20083;-83
2023/05/16 01:58:53;;;;;;;5.32;4.70;;;10.80;85.70;;;;;;5037793;28;20021;-81
2023/05/16 02:01:18;;;;;;;5.85;4.60;;;10.90;85.80;;;;;;5040984;28;20055;-76
2023/05/16 02:03:44;;;;;;;5.00;4.50;;;10.90;85.70;;;;;;5040690;28;20114;-81
2023/05/16 02:06:09;;;;;;;5.32;4.82;;;10.90;85.50;;;;;;5040637;28;20030;-81
2023/05/16 02:08:35;;;;;;;5.35;4.45;;;10.90;85.40;;;;;;5040843;28;20290;-79
2023/05/16 02:11:00;;;;;;;6.40;5.00;;;10.90;85.30;;;;;;5036264;28;20025;-72
2023/05/16 02:13:26;;;;;;;4.60;4.20;;;10.90;85.40;;;;;;5036099;28;20025;-72
2023/05/16 02:15:52;;;;;;;5.78;5.10;;;10.90;85.40;;;;;;5038229;28;20100;-84
2023/05/16 02:18:18;;;;;;;7.35;5.43;;;10.90;85.60;;;;;;5036881;28;20029;-85
2023/05/16 02:20:43;;;;;;;6.22;4.93;;;10.90;85.50;;;;;;5036084;28;20018;-73
2023/05/16 02:23:09;;;;;;;5.70;4.93;;;10.90;85.40;;;;;;5035687;28;20075;-72
2023/05/16 02:25:38;;;;;;;7.45;5.47;;;10.90;85.40;;;;;;5033528;28;20030;-79
2023/05/16 02:28:03;;;;;;;6.10;5.50;;;10.80;84.90;;;;;;5035799;28;20140;-73
2023/05/16 02:30:29;;;;;;;6.65;5.35;;;10.80;85.20;;;;;;5035934;28;20507;-72
2023/05/16 02:32:54;;;;;;;5.90;5.30;;;10.90;85.20;;;;;;5035702;28;20036;-73
2023/05/16 02:35:20;;;;;;;7.30;5.35;;;10.80;85.20;;;;;;5035603;28;20417;-73
2023/05/16 02:37:46;;;;;;;5.80;5.20;;;10.90;85.40;;;;;;5035976;28;20386;-73
2023/05/16 02:40:12;;;;;;;10.15;5.55;;;10.90;85.50;;;;;;5036598;28;20032;-74
2023/05/16 02:42:38;;;;;;;6.03;5.43;;;10.90;85.50;;;;;;5035208;28;20433;-73
2023/05/16 02:45:04;;;;;;;8.40;4.70;;;10.80;85.40;;;;;;5035712;28;20033;-84
2023/05/16 02:47:30;;;;;;;6.18;5.00;;;10.80;85.60;;;;;;5035662;28;20041;-74
2023/05/16 02:49:55;;;;;;;6.10;4.97;;;10.90;86.00;;;;;;5035752;28;20034;-76
2023/05/16 02:52:21;;;;;;;6.57;5.20;;;10.90;86.10;;;;;;5035527;28;20032;-73
2023/05/16 02:54:46;;;;;;;5.97;4.88;;;11.00;86.20;;;;;;5035531;28;20033;-75
2023/05/16 02:57:12;;;;;;;6.32;5.70;;;11.10;86.20;;;;;;5035572;28;20104;-82
2023/05/16 02:59:38;;;;;;;5.07;4.57;;;11.10;86.00;;;;;;5035338;28;20100;-73
2023/05/16 03:02:03;;;;;;;6.07;4.82;;;11.10;85.80;;;;;;5035123;28;20102;-72
2023/05/16 03:04:29;;;;;;;6.03;5.05;;;11.10;85.60;;;;;;5035012;28;20112;-73
2023/05/16 03:06:55;;;;;;;5.82;4.40;;;11.20;85.60;;;;;;5034828;28;20037;-72
2023/05/16 03:09:20;;;;;;;5.10;4.60;;;11.20;85.60;;;;;;5035085;28;20048;-76
2023/05/16 03:11:46;;;;;;;5.30;4.68;;;11.30;85.60;;;;;;5035090;28;20394;-81
2023/05/16 03:14:11;;;;;;;6.18;5.57;;;11.30;85.40;;;;;;5035013;28;20060;-73
2023/05/16 03:16:37;;;;;;;7.47;5.78;;;11.30;85.20;;;;;;5034833;28;20374;-74
2023/05/16 03:19:06;;;;;;;6.40;5.53;;;11.40;85.10;;;;;;5035146;28;20022;-73
2023/05/16 03:21:32;;;;;;;6.90;5.60;;;11.40;85.00;;;;;;5035395;28;20478;-73
2023/05/16 03:23:57;;;;;;;6.15;5.40;;;11.30;85.00;;;;;;5035422;28;20036;-72
2023/05/16 03:26:24;;;;;;;6.57;5.78;;;11.30;85.00;;;;;;5034797;28;20032;-75
2023/05/16 03:28:50;;;;;;;9.48;5.55;;;11.30;85.20;;;;;;5034828;28;20017;-73
2023/05/16 03:31:16;;;;;;;6.25;5.65;;;11.40;85.40;;;;;;5034717;28;20443;-73
2023/05/16 03:33:42;;;;;;;6.40;5.72;;;11.30;85.30;;;;;;5035096;28;20075;-75
2023/05/16 03:36:08;;;;;;;8.18;6.38;;;11.40;85.30;;;;;;5033591;28;20029;-85
2023/05/16 03:38:34;;;;;;;12.23;9.32;;;11.40;85.20;;;;;;5034990;28;20536;-76
2023/05/16 03:41:00;;;;;;;13.45;9.70;;;11.40;85.00;;;;;;5033412;28;20452;-73
2023/05/16 03:43:26;;;;;;;12.40;10.05;;;11.30;85.50;;;;;;5034828;28;20108;-85
2023/05/16 03:45:51;;;;;;;13.60;10.70;;;11.30;85.50;;;;;;5034564;28;20108;-79
2023/05/16 03:48:17;;;;;;;13.85;10.90;;;11.30;85.60;;;;;;5035238;28;20075;-79
2023/05/16 03:50:42;;;;;;;13.20;11.57;;;11.20;85.70;;;;;;5035135;28;20030;-84
2023/05/16 03:53:09;;;;;;;14.90;12.60;;;11.20;85.50;;;;;;5035082;28;20022;-80
2023/05/16 03:55:34;;;;;;;17.70;14.00;;;11.20;85.10;;;;;;5034438;28;20056;-73
2023/05/16 03:58:00;;;;;;;18.83;13.38;;;11.20;85.30;;;;;;5034113;28;20033;-74
2023/05/16 04:00:26;;;;;;;16.98;13.88;;;11.20;85.30;;;;;;5034073;28;20064;-73
2023/05/16 04:02:51;;;;;;;21.25;16.23;;;11.10;85.50;;;;;;5034218;28;20025;-73
2023/05/16 04:05:17;;;;;;;22.10;16.27;;;11.10;85.60;;;;;;5033976;28;20033;-73
2023/05/16 04:07:42;;;;;;;16.63;13.80;;;11.20;85.40;;;;;;5034272;28;20022;-73
2023/05/16 04:10:09;;;;;;;15.88;13.15;;;11.20;85.50;;;;;;5034018;28;20029;-73
2023/05/16 04:12:34;;;;;;;16.52;13.23;;;11.30;85.50;;;;;;5034011;28;20025;-76
2023/05/16 04:15:01;;;;;;;21.98;15.45;;;11.30;85.40;;;;;;5033873;28;20032;-74
2023/05/16 04:17:27;;;;;;;28.55;18.33;;;11.30;85.10;;;;;;5033814;28;20017;-74
2023/05/16 04:19:53;;;;;;;20.48;15.48;;;11.30;84.90;;;;;;5033774;28;20109;-73
2023/05/16 04:22:21;;;;;;;22.98;16.75;;;11.40;84.90;;;;;;5033616;28;20438;-73
2023/05/16 04:24:47;;;;;;;20.70;15.48;;;11.40;85.00;;;;;;5033457;28;20031;-72
2023/05/16 04:27:13;;;;;;;24.33;17.58;;;11.40;84.80;;;;;;5032795;28;20033;-72
2023/05/16 04:29:39;;;;;;;30.88;20.65;;;11.50;84.80;;;;;;5032982;28;20037;-73
2023/05/16 04:32:06;;;;;;;26.88;19.67;;;11.50;84.40;;;;;;5033964;28;20101;-72
2023/05/16 04:34:32;;;;;;;32.38;22.73;;;11.50;84.40;;;;;;5033372;28;20083;-73
2023/05/16 04:36:58;;;;;;;29.88;21.77;;;11.50;85.20;;;;;;5033496;28;20385;-74
2023/05/16 04:39:24;;;;;;;31.17;21.45;;;11.50;84.30;;;;;;5033558;28;20034;-73
2023/05/16 04:41:50;;;;;;;34.90;23.00;;;11.50;84.50;;;;;;5033558;28;20087;-73
2023/05/16 04:44:16;;;;;;;31.13;23.23;;;11.50;84.70;;;;;;5033333;28;20038;-72
2023/05/16 04:46:41;;;;;;;31.13;22.67;;;11.50;84.90;;;;;;5033291;28;20103;-72
2023/05/16 04:49:07;;;;;;;31.10;23.05;;;11.50;85.00;;;;;;5032744;28;20087;-72
2023/05/16 04:51:33;;;;;;;35.67;24.65;;;11.50;85.10;;;;;;5033455;28;20032;-73
2023/05/16 04:53:59;;;;;;;31.75;23.33;;;11.50;84.90;;;;;;5034114;28;20029;-81
2023/05/16 04:56:28;;;;;;;37.70;26.65;;;11.50;84.90;;;;;;5034040;28;20493;-77
2023/05/16 04:58:53;;;;;;;37.15;27.35;;;11.50;84.90;;;;;;5035072;28;20056;-83
2023/05/16 05:01:19;;;;;;;36.67;26.40;;;11.50;84.70;;;;;;5034527;28;20029;-73
2023/05/16 05:03:44;;;;;;;36.47;26.02;;;11.50;84.70;;;;;;5034297;28;20028;-72
2023/05/16 05:06:10;;;;;;;32.35;24.08;;;11.50;84.80;;;;;;5033523;28;20025;-73
2023/05/16 05:08:36;;;;;;;31.92;21.45;;;11.50;84.90;;;;;;5033541;28;20029;-73
2023/05/16 05:11:01;;;;;;;30.30;22.52;;;11.50;84.80;;;;;;5033462;28;20025;-77
2023/05/16 05:13:27;;;;;;;38.97;26.00;;;11.40;85.30;;;;;;5033613;28;20040;-72
2023/05/16 05:15:53;;;;;;;35.22;25.00;;;11.40;84.80;;;;;;5035163;28;20474;-73
2023/05/16 05:18:18;;;;;;;43.95;27.92;;;11.40;84.90;;;;;;5039473;28;20025;-73
2023/05/16 05:20:44;;;;;;;44.33;29.55;;;11.30;85.30;;;;;;5041961;28;20029;-75
2023/05/16 05:23:09;;;;;;;45.28;30.30;;;11.30;85.60;;;;;;5042323;28;20056;-73
2023/05/16 05:25:35;;;;;;;46.35;31.50;;;11.30;85.70;;;;;;5042688;28;20061;-77
2023/05/16 05:28:01;;;;;;;42.83;29.38;;;11.30;85.60;;;;;;5044116;28;20030;-75
2023/05/16 05:30:27;;;;;;;47.03;32.95;;;11.30;85.60;;;;;;5044296;28;20106;-74
2023/05/16 05:32:53;;;;;;;56.47;38.65;;;11.30;85.70;;;;;;5042127;28;20021;-72
2023/05/16 05:35:19;;;;;;;54.85;36.63;;;11.30;85.60;;;;;;5042165;28;20028;-74
2023/05/16 05:37:45;;;;;;;55.53;35.45;;;11.30;85.80;;;;;;5038996;28;20100;-75
2023/05/16 05:40:11;;;;;;;52.75;33.58;;;11.30;85.80;;;;;;5037849;28;20513;-75
2023/05/16 05:42:36;;;;;;;65.05;39.63;;;11.40;85.80;;;;;;5035580;28;20041;-85
2023/05/16 05:45:02;;;;;;;57.33;37.65;;;11.40;85.70;;;;;;5035194;28;20037;-76
2023/05/16 05:47:28;;;;;;;57.55;39.78;;;11.40;85.70;;;;;;5034387;28;20060;-75
2023/05/16 05:49:53;;;;;;;57.88;38.40;;;11.40;85.70;;;;;;5035519;28;20581;-75
2023/05/16 05:52:20;;;;;;;66.50;43.15;;;11.30;86.80;;;;;;5033806;28;20028;-84
2023/05/16 05:54:47;;;;;;;66.57;43.45;;;11.30;86.20;;;;;;5032985;28;20022;-78
2023/05/16 05:57:12;;;;;;;62.38;40.92;;;11.30;86.30;;;;;;5032268;28;20030;-74
2023/05/16 05:59:38;;;;;;;59.38;39.70;;;11.30;86.20;;;;;;5034266;28;20026;-78
2023/05/16 06:02:04;;;;;;;61.70;40.22;;;11.40;86.20;;;;;;5036885;28;20417;-81
2023/05/16 06:04:29;;;;;;;59.40;40.45;;;11.50;86.20;;;;;;5036132;28;20037;-80
2023/05/16 06:06:55;;;;;;;61.47;38.83;;;11.50;86.00;;;;;;5036442;28;20033;-85
2023/05/16 06:09:21;;;;;;;61.30;39.95;;;11.60;85.90;;;;;;5036181;28;20053;-79
2023/05/16 06:11:47;;;;;;;68.65;46.70;;;11.60;85.70;;;;;;5036259;28;20024;-75
2023/05/16 06:14:14;;;;;;;75.20;48.35;;;11.70;85.70;;;;;;5036498;28;20040;-83
2023/05/16 06:16:40;;;;;;;79.50;50.10;;;11.50;85.40;;;;;;5036097;28;20040;-80
2023/05/16 06:19:06;;;;;;;72.05;48.67;;;11.40;85.60;;;;;;5035904;28;20454;-83
2023/05/16 06:21:32;;;;;;;69.95;47.45;;;11.40;86.10;;;;;;5034445;28;20147;-80
2023/05/16 06:23:57;;;;;;;73.82;47.10;;;11.40;86.20;;;;;;5036159;28;20100;-77
2023/05/16 06:26:23;;;;;;;72.93;46.63;;;11.40;86.20;;;;;;5036189;28;20026;-84
2023/05/16 06:28:49;;;;;;;71.35;46.03;;;11.50;86.10;;;;;;5036355;28;20104;-81
2023/05/16 06:31:14;;;;;;;71.82;48.42;;;11.50;86.30;;;;;;5035598;28;20101;-81
2023/05/16 06:33:40;;;;;;;76.88;48.83;;;11.50;86.30;;;;;;5036132;28;20053;-84
2023/05/16 06:36:09;;;;;;;75.70;49.40;;;11.50;86.00;;;;;;5036090;28;20033;-86
2023/05/16 06:38:35;;;;;;;72.03;46.88;;;11.50;86.10;;;;;;5034841;28;20087;-75
2023/05/16 06:41:04;;;;;;;75.07;49.45;;;11.50;86.20;;;;;;5035253;28;20025;-86
2023/05/16 06:43:30;;;;;;;69.72;47.28;;;11.50;86.40;;;;;;5035438;28;20405;-84
2023/05/16 06:45:58;;;;;;;74.20;49.47;;;11.50;86.20;;;;;;5036151;28;20033;-85
2023/05/16 06:48:24;;;;;;;74.97;48.45;;;11.50;86.20;;;;;;5035756;28;20044;-83
2023/05/16 06:50:50;;;;;;;70.18;46.28;;;11.60;86.50;;;;;;5036445;28;20026;-78
2023/05/16 06:53:17;;;;;;;76.40;50.88;;;11.70;86.40;;;;;;5036271;28;20032;-75
2023/05/16 06:55:43;;;;;;;73.72;48.75;;;11.80;85.50;;;;;;5034872;28;20060;-78
2023/05/16 06:58:09;;;;;;;67.63;46.72;;;11.70;85.30;;;;;;5035885;28;20105;-81
2023/05/16 07:00:35;;;;;;;78.47;51.70;;;11.70;85.70;;;;;;5035555;28;20427;-83
2023/05/16 07:03:01;;;;;;;74.00;50.65;;;11.70;85.90;;;;;;5035396;28;20378;-77
2023/05/16 07:05:30;;;;;;;76.00;47.10;;;11.70;85.80;;;;;;5036002;28;20037;-85
2023/05/16 07:08:22;;;;;;;73.35;49.10;;;11.70;85.70;;;;;;5034980;28;20018;-80
2023/05/16 07:10:47;;;;;;;73.75;48.72;;;11.70;85.60;;;;;;5033300;28;20065;-83
2023/05/16 07:13:18;;;;;;;75.93;50.33;;;11.60;85.60;;;;;;5034674;28;20084;-81
2023/05/16 07:15:44;;;;;;;71.38;48.22;;;11.60;86.00;;;;;;5034871;28;20022;-83
2023/05/16 07:18:09;;;;;;;74.72;48.05;;;11.50;86.40;;;;;;5035321;28;20028;-78
2023/05/16 07:20:35;;;;;;;75.45;50.63;;;11.60;86.50;;;;;;5035008;28;20032;-74
2023/05/16 07:23:00;;;;;;;79.72;52.42;;;11.50;86.50;;;;;;5035180;28;20030;-75
2023/05/16 07:25:26;;;;;;;78.03;50.10;;;11.40;86.40;;;;;;5035082;28;20041;-73
2023/05/16 07:27:52;;;;;;;79.93;51.42;;;11.30;86.80;;;;;;5035977;28;20013;-79
2023/05/16 07:30:17;;;;;;;78.80;50.90;;;11.40;87.30;;;;;;5034264;28;20470;-82
2023/05/16 07:32:43;;;;;;;81.03;52.30;;;11.40;87.40;;;;;;5039659;28;20557;-81
2023/05/16 07:35:09;;;;;;;75.85;51.08;;;11.30;87.40;;;;;;5041444;28;20107;-79
2023/05/16 07:37:35;;;;;;;78.22;51.13;;;11.30;87.60;;;;;;5038877;28;20028;-81
2023/05/16 07:40:02;;;;;;;88.38;48.53;;;11.20;87.80;;;;;;5035230;28;20104;-83
2023/05/16 07:42:28;;;;;;;85.70;52.25;;;11.30;87.80;;;;;;5034876;28;20424;-84
2023/05/16 07:44:53;;;;;;;77.30;49.92;;;11.30;87.70;;;;;;5034682;28;20034;-85
2023/05/16 07:47:19;;;;;;;78.68;51.10;;;11.30;87.90;;;;;;5034421;28;20133;-81
2023/05/16 07:49:45;;;;;;;68.55;39.08;;;11.30;87.80;;;;;;5034887;28;20025;-84
2023/05/16 07:52:10;;;;;;;57.28;34.70;;;11.70;93.70;;;;;;5034083;28;20033;-72
2023/05/16 07:54:36;;;;;;;60.40;37.53;;;12.10;93.30;;;;;;5034097;28;20026;-74
2023/05/16 07:57:02;;;;;;;58.33;40.13;;;12.40;88.30;;;;;;5033719;28;20108;-73
2023/05/16 07:59:28;;;;;;;55.95;38.03;;;12.60;85.40;;;;;;5033903;28;20108;-75
2023/05/16 08:01:55;;;;;;;58.97;40.33;;;12.80;83.50;;;;;;5033773;28;20032;-75
2023/05/16 08:04:20;;;;;;;62.00;41.38;;;13.00;81.60;;;;;;5033938;28;20037;-75
2023/05/16 08:06:46;;;;;;;59.08;37.80;;;13.00;80.70;;;;;;5033915;28;20029;-78
2023/05/16 08:09:12;;;;;;;57.03;38.40;;;12.70;82.40;;;;;;5032571;28;20500;-79
2023/05/16 08:11:38;;;;;;;57.10;36.20;;;12.90;81.20;;;;;;5033691;28;20623;-77
2023/05/16 08:14:04;;;;;;;53.08;36.55;;;13.00;80.80;;;;;;5033582;28;20036;-78
2023/05/16 08:16:30;;;;;;;54.13;35.95;;;13.00;80.30;;;;;;5032119;28;20018;-78
2023/05/16 08:18:55;;;;;;;53.65;34.70;;;13.10;80.10;;;;;;5033506;28;20450;-77
2023/05/16 08:21:21;;;;;;;41.10;31.08;;;13.20;79.10;;;;;;5032141;28;20029;-76
2023/05/16 08:23:46;;;;;;;61.03;34.47;;;13.40;78.50;;;;;;5038518;28;20032;-75
2023/05/16 08:26:12;;;;;;;47.50;34.78;;;13.30;77.70;;;;;;5043585;28;20105;-81
2023/05/16 08:28:38;;;;;;;49.05;37.05;;;13.20;78.00;;;;;;5042455;28;20026;-75
2023/05/16 08:31:03;;;;;;;48.17;36.45;;;12.90;79.00;;;;;;5041393;28;20025;-73
2023/05/16 08:33:29;;;;;;;51.97;37.22;;;12.60;80.30;;;;;;5033910;28;20021;-76
2023/05/16 08:35:54;;;;;;;55.70;39.22;;;12.30;81.20;;;;;;5033225;28;20367;-76
2023/05/16 08:38:20;;;;;;;48.80;34.42;;;12.00;82.70;;;;;;5033370;28;20033;-84
2023/05/16 08:40:46;;;;;;;56.67;32.80;;;11.80;83.80;;;;;;5033707;28;20040;-78
2023/05/16 08:43:11;;;;;;;50.85;34.47;;;11.70;85.10;;;;;;5034147;28;20091;-80
2023/05/16 08:45:39;;;;;;;40.55;30.77;;;11.50;85.30;;;;;;5034966;28;20022;-78
2023/05/16 08:48:06;;;;;;;50.85;30.83;;;11.30;86.30;;;;;;5035742;28;20033;-88
2023/05/16 08:50:31;;;;;;;46.03;30.17;;;11.20;86.70;;;;;;5034838;28;20025;-81
2023/05/16 08:53:04;;;;;;;44.10;30.13;;;11.20;86.60;;;;;;5034650;28;20021;-89
2023/05/16 08:55:30;;;;;;;40.47;29.83;;;11.00;86.60;;;;;;5035538;28;20053;-92
2023/05/16 08:57:56;;;;;;;42.42;30.55;;;10.90;87.30;;;;;;5036212;28;20030;-93
2023/05/16 09:00:23;;;;;;;44.03;30.58;;;10.90;87.60;;;;;;5037799;28;20032;-88
2023/05/16 09:02:49;;;;;;;39.03;30.23;;;10.90;88.10;;;;;;5036147;28;20026;-91
2023/05/16 09:05:16;;;;;;;42.88;29.80;;;10.70;88.60;;;;;;5036929;28;20097;-92
2023/05/16 09:07:42;;;;;;;40.75;28.88;;;10.70;89.00;;;;;;5035066;28;20033;-90
2023/05/16 09:10:08;;;;;;;42.88;29.02;;;10.80;89.10;;;;;;5030715;28;20033;-90
2023/05/16 09:12:35;;;;;;;46.13;28.13;;;10.80;88.60;;;;;;5034750;28;20033;-88
2023/05/16 09:15:05;;;;;;;46.33;26.75;;;10.80;88.50;;;;;;5034918;28;20091;-90
2023/05/16 09:17:42;;;;;;;36.35;25.90;;;10.80;88.20;;;;;;5034764;28;20381;-87
2023/05/16 09:20:16;;;;;;;33.70;23.30;;;10.80;88.10;;;;;;5035325;28;20021;-87
2023/05/16 09:22:57;;;;;;;31.25;21.92;;;10.90;88.00;;;;;;5034486;28;20096;-87
2023/05/16 09:25:24;;;;;;;33.28;24.58;;;11.00;87.90;;;;;;5014159;28;20046;-88
2023/05/16 09:27:58;;;;;;;31.63;23.05;;;11.00;87.70;;;;;;5014495;28;20026;-87
2023/05/16 09:30:32;;;;;;;34.67;24.52;;;11.00;87.60;;;;;;5015039;28;20034;-88
2023/05/16 09:32:58;;;;;;;34.35;25.30;;;11.10;87.70;;;;;;5013563;28;20034;-87
2023/05/16 09:35:23;;;;;;;31.48;24.48;;;11.00;87.40;;;;;;5016377;28;20028;-83
2023/05/16 09:37:53;;;;;;;35.67;25.08;;;11.00;87.70;;;;;;5018153;28;20025;-86
2023/05/16 09:40:22;;;;;;;34.40;24.00;;;11.00;87.80;;;;;;5018346;28;20426;-87
2023/05/16 09:43:04;;;;;;;33.22;23.85;;;11.00;87.80;;;;;;5017967;28;20544;-83
2023/05/16 09:45:31;;;;;;;32.92;23.80;;;11.00;87.80;;;;;;5018427;28;20560;-84
2023/05/16 09:48:08;;;;;;;34.42;23.75;;;11.00;88.00;;;;;;5018350;28;20045;-84
2023/05/16 09:50:35;;;;;;;29.75;22.73;;;11.00;88.00;;;;;;5016710;28;20072;-79
2023/05/16 09:53:04;;;;;;;28.25;20.70;;;10.90;88.30;;;;;;5017509;28;20014;-76
2023/05/16 09:55:30;;;;;;;28.65;20.95;;;10.80;87.80;;;;;;5017043;28;20033;-76
2023/05/16 09:57:56;;;;;;;27.45;20.52;;;10.70;87.50;;;;;;5017103;28;20022;-87
2023/05/16 10:00:31;;;;;;;26.90;20.48;;;10.70;87.60;;;;;;5019792;28;20018;-81
2023/05/16 10:02:58;;;;;;;26.85;20.83;;;10.80;87.60;;;;;;5018425;28;20470;-78
2023/05/16 10:05:27;;;;;;;25.02;19.75;;;10.80;87.30;;;;;;5034381;28;20513;-77
2023/05/16 10:07:56;;;;;;;27.90;22.17;;;10.80;87.50;;;;;;5036548;28;20022;-80
2023/05/16 10:10:26;;;;;;;28.67;22.55;;;10.80;87.00;;;;;;5035733;28;20060;-80
2023/05/16 10:12:53;;;;;;;29.60;22.50;;;10.80;87.30;;;;;;5038597;28;20024;-76
2023/05/16 10:15:20;;;;;;;34.78;24.70;;;10.80;86.80;;;;;;5036353;28;20334;-78
2023/05/16 10:17:51;;;;;;;31.65;24.15;;;10.70;86.90;;;;;;5035107;28;20041;-78
2023/05/16 10:20:19;;;;;;;32.88;24.50;;;10.70;87.10;;;;;;5036426;28;20068;-76
2023/05/16 10:22:46;;;;;;;36.20;26.10;;;10.80;87.10;;;;;;5036767;28;20036;-77
2023/05/16 10:25:24;;;;;;;38.17;27.60;;;10.80;87.00;;;;;;5036413;28;20112;-76
2023/05/16 10:27:53;;;;;;;39.60;27.33;;;10.80;86.50;;;;;;5037313;28;20355;-74
2023/05/16 10:30:20;;;;;;;33.67;26.08;;;10.80;86.70;;;;;;5040539;28;20022;-79
2023/05/16 10:32:46;;;;;;;38.35;27.38;;;10.80;86.60;;;;;;5035130;28;20076;-76
2023/05/16 10:35:15;;;;;;;38.13;27.98;;;10.90;87.10;;;;;;5036497;28;20600;-74
2023/05/16 10:37:41;;;;;;;32.92;26.05;;;10.90;86.90;;;;;;5036223;28;20033;-74
2023/05/16 10:40:08;;;;;;;40.00;28.63;;;10.90;87.10;;;;;;5035631;28;20028;-74
2023/05/16 10:42:34;;;;;;;38.58;27.52;;;11.00;87.10;;;;;;5035543;28;20021;-73
2023/05/16 10:45:15;;;;;;;36.55;26.77;;;11.00;86.90;;;;;;5035146;28;20036;-74
2023/05/16 10:47:49;;;;;;;35.80;26.20;;;11.00;87.00;;;;;;5034474;28;20049;-73
2023/05/16 10:50:35;;;;;;;39.13;28.20;;;11.10;86.70;;;;;;5035760;28;20466;-73
2023/05/16 10:53:33;;;;;;;43.03;29.88;;;11.00;86.50;;;;;;5035620;28;20025;-73
2023/05/16 10:55:58;;;;;;;40.80;29.80;;;11.00;86.80;;;;;;5032246;28;20025;-75
2023/05/16 10:58:39;;;;;;;43.65;29.75;;;11.00;86.50;;;;;;5034628;28;20029;-75
2023/05/16 11:01:26;;;;;;;39.65;29.70;;;11.10;86.80;;;;;;5032954;28;20032;-73
2023/05/16 11:03:58;;;;;;;45.40;31.15;;;11.10;86.50;;;;;;5034559;28;20033;-81
2023/05/16 11:06:31;;;;;;;41.72;30.13;;;11.00;86.60;;;;;;5034251;28;20104;-75
2023/05/16 11:09:04;;;;;;;37.88;28.30;;;11.20;87.10;;;;;;5035514;28;20382;-76
2023/05/16 11:11:43;;;;;;;39.85;28.58;;;11.30;86.80;;;;;;5035037;28;20096;-79
2023/05/16 11:14:16;;;;;;;37.05;26.10;;;11.50;86.20;;;;;;5035529;28;20459;-81
2023/05/16 11:16:48;;;;;;;35.35;26.33;;;11.60;85.90;;;;;;5034127;28;20033;-77
2023/05/16 11:19:29;;;;;;;34.22;25.65;;;11.70;85.70;;;;;;5035248;28;20022;-77
2023/05/16 11:22:17;;;;;;;38.13;27.40;;;11.90;86.20;;;;;;5036145;28;20021;-76
2023/05/16 11:24:50;;;;;;;39.88;28.05;;;12.00;84.70;;;;;;5037191;28;20033;-79
2023/05/16 11:27:25;;;;;;;36.58;26.55;;;12.10;84.70;;;;;;5037819;28;20029;-89
2023/05/16 11:30:10;;;;;;;36.05;25.95;;;12.20;84.10;;;;;;5038477;28;20017;-84
2023/05/16 11:32:38;;;;;;;35.65;26.48;;;12.30;83.50;;;;;;5041853;28;20022;-75
2023/05/16 11:35:07;;;;;;;33.08;25.67;;;12.40;83.10;;;;;;5046537;28;20389;-72
2023/05/16 11:37:35;;;;;;;32.22;23.55;;;12.40;82.00;;;;;;5043665;28;20026;-77
2023/05/16 11:40:08;;;;;;;33.65;25.52;;;12.40;82.50;;;;;;5038203;28;20038;-73
2023/05/16 11:42:46;;;;;;;33.22;25.27;;;12.40;82.50;;;;;;5036955;28;20025;-74
2023/05/16 11:45:18;;;;;;;28.52;21.10;;;12.40;82.60;;;;;;5041702;28;20076;-76
2023/05/16 11:47:46;;;;;;;29.50;22.02;;;12.40;82.40;;;;;;5049398;28;20045;-73
2023/05/16 11:50:22;;;;;;;27.15;20.98;;;12.40;82.40;;;;;;5053757;28;20026;-75
2023/05/16 11:52:52;;;;;;;;;;;12.30;82.30;;;;;;5055405;28;20006;-72
2023/05/16 11:55:20;;;;;;;35.67;26.33;;;12.30;82.30;;;;;;5054934;28;19915;-79
2023/05/16 11:57:50;;;;;;;30.85;23.17;;;12.10;82.30;;;;;;5044574;28;20026;-93
2023/05/16 12:00:18;;;;;;;34.30;26.08;;;12.10;82.80;;;;;;5041404;28;20133;-89
2023/05/16 12:02:48;;;;;;;29.77;22.67;;;12.10;83.10;;;;;;5039691;28;20026;-85
2023/05/16 12:05:15;;;;;;;34.45;24.35;;;12.10;83.70;;;;;;5038854;28;20497;-73
2023/05/16 12:07:45;;;;;;;32.50;24.60;;;12.10;83.90;;;;;;5038097;28;20022;-72
2023/05/16 12:10:13;;;;;;;35.92;26.02;;;12.10;83.90;;;;;;5032851;28;20419;-72
2023/05/16 12:12:44;;;;;;;34.75;26.02;;;11.90;83.60;;;;;;5033788;28;20030;-75
2023/05/16 12:15:10;;;;;;;34.47;25.48;;;11.60;84.60;;;;;;5034163;28;20021;-73
2023/05/16 12:17:37;;;;;;;37.80;27.08;;;11.40;85.90;;;;;;5034060;28;20036;-73
2023/05/16 12:20:10;;;;;;;37.13;26.80;;;11.30;87.10;;;;;;5033969;28;20104;-73
2023/05/16 12:22:38;;;;;;;30.27;21.63;;;11.20;87.30;;;;;;5033534;28;20374;-73
2023/05/16 12:25:36;;;;;;;27.60;20.85;;;11.10;87.70;;;;;;5033083;28;20036;-73
2023/05/16 12:28:06;;;;;;;27.58;20.33;;;11.10;87.60;;;;;;5033661;28;20018;-74
2023/05/16 12:30:32;;;;;;;29.45;21.45;;;11.10;87.80;;;;;;5033432;28;20028;-75
2023/05/16 12:33:08;;;;;;;26.58;19.67;;;11.00;88.30;;;;;;5033300;28;20022;-73
2023/05/16 12:35:37;;;;;;;26.83;19.13;;;10.90;88.50;;;;;;5033448;28;20021;-73
2023/05/16 12:38:13;;;;;;;22.45;16.75;;;10.90;89.00;;;;;;5033292;28;20029;-75